Time;durP1;ratioP1;P1;durP2;ratioP2;P2;SDS_P1;SDS_P2;PMS_P1;PMS_P2;Temp;Humidity;BMP_temperature;BMP_pressure;BME280_temperature;BME280_humidity;BME280_pressure;Samples;Min_cycle;Max_cycle;Signal;HPM_P1;HPM_P2
2021/05/12 00:02:17;;;;;;;7.53;6.83;;;15.80;99.90;;;;;;5094922;28;20453;-68
2021/05/12 00:04:48;;;;;;;7.57;6.80;;;15.80;99.90;;;;;;5097480;28;20453;-67
2021/05/12 00:07:17;;;;;;;8.53;7.73;;;15.70;99.90;;;;;;5098569;28;20888;-68
2021/05/12 00:09:46;;;;;;;8.83;7.97;;;15.70;99.90;;;;;;5098808;28;20457;-67
2021/05/12 00:12:12;;;;;;;8.10;7.30;;;15.60;99.90;;;;;;5098713;28;20456;-68
2021/05/12 00:14:39;;;;;;;9.70;8.80;;;15.60;99.90;;;;;;5098782;28;20484;-68
2021/05/12 00:17:06;;;;;;;8.67;7.77;;;15.60;99.90;;;;;;5098678;28;20460;-67
2021/05/12 00:19:36;;;;;;;9.73;8.80;;;15.60;99.90;;;;;;5098807;28;20457;-68
2021/05/12 00:22:14;;;;;;;9.40;8.50;;;15.60;99.90;;;;;;5098632;28;20518;-68
2021/05/12 00:24:42;;;;;;;9.23;8.23;;;15.60;99.90;;;;;;5098599;28;20761;-68
2021/05/12 00:27:09;;;;;;;10.13;7.60;;;15.50;99.90;;;;;;5098449;28;20457;-68
2021/05/12 00:29:35;;;;;;;8.00;7.30;;;15.50;99.90;;;;;;5098434;28;20941;-69
2021/05/12 00:32:04;;;;;;;10.33;8.70;;;15.50;99.90;;;;;;5098041;28;20542;-69
2021/05/12 00:34:31;;;;;;;11.20;9.13;;;15.40;99.90;;;;;;5099001;28;20487;-69
2021/05/12 00:36:57;;;;;;;12.97;10.20;;;15.40;99.90;;;;;;5098476;28;20464;-69
2021/05/12 00:39:23;;;;;;;12.40;10.37;;;15.40;99.90;;;;;;5098332;28;20518;-69
2021/05/12 00:41:50;;;;;;;11.40;9.30;;;15.30;99.90;;;;;;5098364;28;20453;-69
2021/05/12 00:44:19;;;;;;;10.13;9.03;;;15.30;99.90;;;;;;5098276;28;20465;-69
2021/05/12 00:46:47;;;;;;;11.33;9.83;;;15.30;99.90;;;;;;5098282;28;20461;-69
2021/05/12 00:49:13;;;;;;;12.20;10.20;;;15.30;99.90;;;;;;5098371;28;20453;-69
2021/05/12 00:51:41;;;;;;;13.07;10.77;;;15.20;99.90;;;;;;5098306;28;20468;-68
2021/05/12 00:54:08;;;;;;;14.47;10.90;;;15.20;99.90;;;;;;5097991;28;20480;-69
2021/05/12 00:56:35;;;;;;;13.97;11.50;;;15.20;99.90;;;;;;5098038;28;20503;-69
2021/05/12 00:59:02;;;;;;;13.33;11.70;;;15.10;99.90;;;;;;5097917;28;20457;-68
2021/05/12 01:01:28;;;;;;;14.47;11.50;;;15.10;99.90;;;;;;5098022;28;20461;-68
2021/05/12 01:03:54;;;;;;;16.13;12.83;;;15.10;99.90;;;;;;5097958;28;20458;-69
2021/05/12 01:06:24;;;;;;;14.00;11.07;;;15.10;99.90;;;;;;5098145;28;20461;-68
2021/05/12 01:08:51;;;;;;;13.27;10.87;;;15.10;99.90;;;;;;5097786;28;20464;-68
2021/05/12 01:11:17;;;;;;;12.47;11.23;;;15.10;99.90;;;;;;5097806;28;20468;-68
2021/05/12 01:13:44;;;;;;;14.30;10.13;;;15.00;99.90;;;;;;5097354;28;20568;-68
2021/05/12 01:16:11;;;;;;;11.43;9.70;;;15.00;99.90;;;;;;5097458;28;20763;-69
2021/05/12 01:18:38;;;;;;;12.47;9.87;;;14.80;99.90;;;;;;5097446;28;20948;-69
2021/05/12 01:21:07;;;;;;;11.43;10.17;;;14.70;99.90;;;;;;5097725;28;20453;-69
2021/05/12 01:23:35;;;;;;;9.80;8.80;;;14.70;99.90;;;;;;5097948;28;20813;-69
2021/05/12 01:26:05;;;;;;;9.53;8.30;;;14.70;99.90;;;;;;5097945;28;20457;-69
2021/05/12 01:28:36;;;;;;;10.43;8.60;;;14.70;99.90;;;;;;5098320;28;20843;-69
2021/05/12 01:31:05;;;;;;;15.10;9.50;;;14.70;99.90;;;;;;5097708;28;20485;-68
2021/05/12 01:33:32;;;;;;;10.00;8.77;;;14.70;99.90;;;;;;5098681;28;20453;-69
2021/05/12 01:35:58;;;;;;;9.80;8.80;;;14.70;99.90;;;;;;5101543;28;20453;-69
2021/05/12 01:38:27;;;;;;;9.93;8.80;;;14.70;99.90;;;;;;5099691;28;20598;-70
2021/05/12 01:40:54;;;;;;;11.33;9.20;;;14.70;99.90;;;;;;5097631;28;20453;-70
2021/05/12 01:43:21;;;;;;;10.37;9.00;;;14.80;99.90;;;;;;5097636;28;20522;-69
2021/05/12 01:45:48;;;;;;;13.10;11.07;;;14.80;99.90;;;;;;5097867;28;20457;-70
2021/05/12 01:48:14;;;;;;;10.57;9.57;;;14.90;99.90;;;;;;5097750;28;20494;-70
2021/05/12 01:50:41;;;;;;;10.10;9.10;;;14.80;99.90;;;;;;5097340;28;20457;-70
2021/05/12 01:53:08;;;;;;;13.97;9.37;;;14.80;99.90;;;;;;5097285;28;20453;-70
2021/05/12 01:55:36;;;;;;;9.70;8.27;;;14.80;99.90;;;;;;5097150;28;20477;-69
2021/05/12 01:58:02;;;;;;;9.80;8.63;;;14.90;99.90;;;;;;5096972;28;20453;-68
2021/05/12 02:00:30;;;;;;;8.70;7.67;;;14.90;99.90;;;;;;5096957;28;20457;-68
2021/05/12 02:02:57;;;;;;;16.70;9.70;;;15.00;99.90;;;;;;5098103;28;20450;-68
2021/05/12 02:05:25;;;;;;;8.77;7.90;;;14.90;99.90;;;;;;5099037;28;20449;-68
2021/05/12 02:07:52;;;;;;;8.97;7.67;;;14.80;99.90;;;;;;5099715;28;20476;-68
2021/05/12 02:10:19;;;;;;;9.43;8.53;;;14.80;99.90;;;;;;5098437;28;20460;-70
2021/05/12 02:12:46;;;;;;;9.67;8.00;;;14.70;99.90;;;;;;5098615;28;20452;-69
2021/05/12 02:15:13;;;;;;;8.63;7.80;;;14.70;99.90;;;;;;5096445;28;20488;-68
2021/05/12 02:17:40;;;;;;;7.47;6.77;;;14.60;99.90;;;;;;5096436;28;20457;-68
2021/05/12 02:20:10;;;;;;;8.43;7.57;;;14.50;99.90;;;;;;5095900;28;20914;-68
2021/05/12 02:22:37;;;;;;;7.83;6.90;;;14.50;99.90;;;;;;5096212;28;20458;-68
2021/05/12 02:25:04;;;;;;;8.00;7.20;;;14.40;99.90;;;;;;5096270;28;20460;-69
2021/05/12 02:27:30;;;;;;;8.63;7.33;;;14.40;99.90;;;;;;5095351;28;20453;-69
2021/05/12 02:30:01;;;;;;;8.40;7.60;;;14.40;99.90;;;;;;5096117;28;20464;-69
2021/05/12 02:32:27;;;;;;;8.40;6.73;;;14.40;99.90;;;;;;5095836;28;20481;-68
2021/05/12 02:34:55;;;;;;;8.17;7.27;;;14.40;99.90;;;;;;5095928;28;20820;-69
2021/05/12 02:37:22;;;;;;;8.77;7.60;;;14.40;99.90;;;;;;5096753;28;20522;-69
2021/05/12 02:39:48;;;;;;;8.33;7.43;;;14.40;99.90;;;;;;5096464;28;20476;-68
2021/05/12 02:42:15;;;;;;;8.70;7.80;;;14.40;99.90;;;;;;5095907;28;20468;-68
2021/05/12 02:44:41;;;;;;;10.73;8.17;;;14.30;99.90;;;;;;5095994;28;20445;-68
2021/05/12 02:47:11;;;;;;;9.67;8.10;;;14.30;99.90;;;;;;5095906;28;20457;-68
2021/05/12 02:49:39;;;;;;;9.07;7.23;;;14.30;99.90;;;;;;5096302;28;20462;-69
2021/05/12 02:52:06;;;;;;;10.00;6.70;;;14.20;99.90;;;;;;5096489;28;20453;-68
2021/05/12 02:54:33;;;;;;;9.33;7.50;;;14.20;99.90;;;;;;5096478;28;20498;-69
2021/05/12 02:57:00;;;;;;;9.93;7.90;;;14.10;99.90;;;;;;5096436;28;20453;-68
2021/05/12 02:59:26;;;;;;;9.00;7.60;;;14.10;99.90;;;;;;5095620;28;20457;-69
2021/05/12 03:01:52;;;;;;;9.33;8.10;;;14.10;99.90;;;;;;5095837;28;20454;-68
2021/05/12 03:04:19;;;;;;;7.83;7.03;;;14.00;99.90;;;;;;5095667;28;20454;-69
2021/05/12 03:06:46;;;;;;;9.10;7.10;;;14.10;99.90;;;;;;5095763;28;20890;-69
2021/05/12 03:09:12;;;;;;;9.20;7.20;;;14.00;99.90;;;;;;5095474;28;20453;-69
2021/05/12 03:11:38;;;;;;;11.87;8.80;;;14.00;99.90;;;;;;5095609;28;20464;-69
2021/05/12 03:14:07;;;;;;;9.00;7.10;;;14.00;99.90;;;;;;5095568;28;20503;-69
2021/05/12 03:16:33;;;;;;;7.53;6.77;;;14.00;99.90;;;;;;5095186;28;20905;-69
2021/05/12 03:19:00;;;;;;;9.47;6.93;;;14.00;99.90;;;;;;5095296;28;20465;-69
2021/05/12 03:21:28;;;;;;;9.23;8.20;;;14.00;99.90;;;;;;5095174;28;20458;-69
2021/05/12 03:23:54;;;;;;;8.70;6.30;;;14.00;99.90;;;;;;5095409;28;20560;-69
2021/05/12 03:26:23;;;;;;;9.50;7.63;;;14.00;99.90;;;;;;5095499;28;20456;-69
2021/05/12 03:28:49;;;;;;;7.50;6.70;;;14.10;99.90;;;;;;5094870;28;20453;-69
2021/05/12 03:31:16;;;;;;;9.50;6.67;;;14.10;99.90;;;;;;5094984;28;20481;-69
2021/05/12 03:33:42;;;;;;;8.97;6.50;;;14.00;99.90;;;;;;5094961;28;20457;-69
2021/05/12 03:36:09;;;;;;;6.70;5.90;;;14.00;99.90;;;;;;5095130;28;20453;-69
2021/05/12 03:38:37;;;;;;;9.00;5.30;;;14.00;99.90;;;;;;5099772;28;20453;-69
2021/05/12 03:41:05;;;;;;;9.67;5.73;;;14.00;99.90;;;;;;5102165;28;20510;-69
2021/05/12 03:43:31;;;;;;;6.10;5.50;;;14.10;99.90;;;;;;5101841;28;20449;-69
2021/05/12 03:45:58;;;;;;;7.77;5.47;;;14.10;99.90;;;;;;5101465;28;20922;-69
2021/05/12 03:48:24;;;;;;;8.10;5.00;;;14.10;99.90;;;;;;5101862;28;20464;-69
2021/05/12 03:50:50;;;;;;;5.60;5.10;;;14.10;99.90;;;;;;5101616;28;20568;-69
2021/05/12 03:53:16;;;;;;;8.90;5.87;;;14.00;99.90;;;;;;5101324;28;20944;-69
2021/05/12 03:55:43;;;;;;;7.23;5.20;;;14.00;99.90;;;;;;5101633;28;20481;-69
2021/05/12 03:58:11;;;;;;;5.70;5.10;;;14.00;99.90;;;;;;5101705;28;20461;-69
2021/05/12 04:00:38;;;;;;;10.77;5.10;;;14.00;99.90;;;;;;5101487;28;20486;-69
2021/05/12 04:03:04;;;;;;;5.40;4.90;;;14.00;99.90;;;;;;5101618;28;20457;-68
2021/05/12 04:05:31;;;;;;;4.33;3.93;;;14.00;99.90;;;;;;5101495;28;20453;-68
2021/05/12 04:07:57;;;;;;;8.17;4.93;;;14.00;99.90;;;;;;5101520;28;20457;-68
2021/05/12 04:10:23;;;;;;;5.60;3.93;;;14.00;99.90;;;;;;5101392;28;20457;-69
2021/05/12 04:12:50;;;;;;;7.63;4.27;;;14.00;99.90;;;;;;5101568;28;20467;-68
2021/05/12 04:15:18;;;;;;;6.30;5.10;;;14.00;99.90;;;;;;5101175;28;20473;-69
2021/05/12 04:17:45;;;;;;;4.60;4.10;;;14.00;99.90;;;;;;5101739;28;20464;-69
2021/05/12 04:20:13;;;;;;;6.03;5.27;;;14.00;99.90;;;;;;5101411;28;20521;-69
2021/05/12 04:22:40;;;;;;;5.30;3.97;;;14.10;99.90;;;;;;5101596;28;20464;-68
2021/05/12 04:25:09;;;;;;;5.53;4.00;;;14.10;99.90;;;;;;5101341;28;20464;-69
2021/05/12 04:27:35;;;;;;;7.30;4.17;;;14.10;99.90;;;;;;5101037;28;20501;-69
2021/05/12 04:30:03;;;;;;;4.27;3.87;;;14.20;99.90;;;;;;5101041;28;20490;-69
2021/05/12 04:32:29;;;;;;;6.10;3.77;;;14.30;99.90;;;;;;5101124;28;20515;-69
2021/05/12 04:34:56;;;;;;;4.03;3.63;;;14.50;99.90;;;;;;5101329;28;20469;-69
2021/05/12 04:37:22;;;;;;;4.27;3.80;;;14.50;99.90;;;;;;5101654;28;20472;-68
2021/05/12 04:39:48;;;;;;;4.60;4.10;;;14.50;99.90;;;;;;5102111;28;20491;-68
2021/05/12 04:42:14;;;;;;;7.77;5.03;;;14.60;99.90;;;;;;5101399;28;20456;-68
2021/05/12 04:44:40;;;;;;;5.43;3.97;;;14.50;99.90;;;;;;5101189;28;20449;-68
2021/05/12 04:47:07;;;;;;;9.23;3.80;;;14.50;99.90;;;;;;5101152;28;20453;-68
2021/05/12 04:49:34;;;;;;;9.10;4.20;;;14.60;99.90;;;;;;5099030;28;20941;-69
2021/05/12 04:52:00;;;;;;;7.83;4.50;;;14.60;99.90;;;;;;5098359;28;20461;-69
2021/05/12 04:54:26;;;;;;;3.50;3.10;;;14.60;99.90;;;;;;5098087;28;20488;-70
2021/05/12 04:56:54;;;;;;;4.80;4.30;;;14.60;99.90;;;;;;5098058;28;20490;-68
2021/05/12 04:59:20;;;;;;;9.80;4.50;;;14.50;99.90;;;;;;5098473;28;20779;-68
2021/05/12 05:01:47;;;;;;;6.33;5.03;;;14.50;99.90;;;;;;5098241;28;20468;-69
2021/05/12 05:04:16;;;;;;;4.77;4.30;;;14.50;99.90;;;;;;5097927;28;20495;-68
2021/05/12 05:06:42;;;;;;;5.40;4.30;;;14.50;99.90;;;;;;5097706;28;20786;-68
2021/05/12 05:09:09;;;;;;;7.30;4.80;;;14.40;99.90;;;;;;5097850;28;20468;-68
2021/05/12 05:11:36;;;;;;;5.07;4.27;;;14.40;99.90;;;;;;5097798;28;20457;-68
2021/05/12 05:14:02;;;;;;;5.73;4.60;;;14.30;99.90;;;;;;5098432;28;20461;-69
2021/05/12 05:16:29;;;;;;;6.40;5.00;;;14.30;99.90;;;;;;5097409;28;20457;-68
2021/05/12 05:18:56;;;;;;;9.20;4.80;;;14.20;99.90;;;;;;5097850;28;20521;-69
2021/05/12 05:21:23;;;;;;;8.10;5.30;;;14.20;99.90;;;;;;5097838;28;20453;-69
2021/05/12 05:23:49;;;;;;;6.97;4.60;;;14.20;99.90;;;;;;5097891;28;20472;-68
2021/05/12 05:26:15;;;;;;;5.17;4.67;;;14.10;99.90;;;;;;5097729;28;20453;-69
2021/05/12 05:28:41;;;;;;;6.47;4.73;;;14.10;99.90;;;;;;5098046;28;20461;-70
2021/05/12 05:31:08;;;;;;;5.80;4.20;;;14.20;99.90;;;;;;5097438;28;20507;-69
2021/05/12 05:33:36;;;;;;;5.90;4.77;;;14.10;99.90;;;;;;5097762;28;20467;-69
2021/05/12 05:36:02;;;;;;;6.17;4.67;;;14.20;99.90;;;;;;5097520;28;20564;-70
2021/05/12 05:38:29;;;;;;;4.83;4.33;;;14.20;99.90;;;;;;5097109;28;20836;-69
2021/05/12 05:40:55;;;;;;;5.93;4.87;;;14.20;99.90;;;;;;5096952;28;20457;-69
2021/05/12 05:43:21;;;;;;;5.80;4.00;;;14.20;99.90;;;;;;5096978;28;20468;-70
2021/05/12 05:45:48;;;;;;;7.80;4.43;;;14.20;99.90;;;;;;5097284;28;20941;-70
2021/05/12 05:48:14;;;;;;;6.97;4.67;;;14.20;99.90;;;;;;5097134;28;20538;-69
2021/05/12 05:50:41;;;;;;;5.90;4.80;;;14.20;99.90;;;;;;5096647;28;20519;-69
2021/05/12 05:53:07;;;;;;;6.87;4.57;;;14.10;99.90;;;;;;5096668;28;20453;-69
2021/05/12 05:55:34;;;;;;;9.50;5.60;;;14.10;99.90;;;;;;5097127;28;20477;-69
2021/05/12 05:58:00;;;;;;;7.00;5.13;;;14.00;99.90;;;;;;5097221;28;20457;-70
2021/05/12 06:00:27;;;;;;;5.13;4.63;;;14.10;99.90;;;;;;5096977;28;20457;-69
2021/05/12 06:02:53;;;;;;;6.90;4.50;;;14.10;99.90;;;;;;5095831;28;20457;-69
2021/05/12 06:05:19;;;;;;;5.63;4.80;;;14.20;99.90;;;;;;5096726;28;20460;-69
2021/05/12 06:07:49;;;;;;;5.83;4.90;;;14.40;99.90;;;;;;5097335;28;20532;-70
2021/05/12 06:10:15;;;;;;;5.90;4.83;;;14.50;99.90;;;;;;5096189;28;20457;-69
2021/05/12 06:12:42;;;;;;;5.17;4.63;;;14.50;99.90;;;;;;5096382;28;20457;-70
2021/05/12 06:15:09;;;;;;;5.70;4.70;;;14.50;99.90;;;;;;5096209;28;20497;-69
2021/05/12 06:17:35;;;;;;;5.50;5.00;;;14.50;99.90;;;;;;5096494;28;20464;-70
2021/05/12 06:20:01;;;;;;;5.23;4.20;;;14.50;99.90;;;;;;5096293;28;20548;-70
2021/05/12 06:22:28;;;;;;;11.03;4.60;;;14.50;99.90;;;;;;5097307;28;20462;-70
2021/05/12 06:24:58;;;;;;;5.20;4.57;;;14.60;99.90;;;;;;5096678;28;20450;-69
2021/05/12 06:27:30;;;;;;;8.03;5.07;;;14.60;99.90;;;;;;5096647;28;20461;-71
2021/05/12 06:29:58;;;;;;;6.53;5.53;;;14.60;99.90;;;;;;5096744;28;20455;-71
2021/05/12 06:32:24;;;;;;;5.93;5.33;;;14.60;99.90;;;;;;5096513;28;20530;-70
2021/05/12 06:34:51;;;;;;;7.00;5.83;;;14.60;99.90;;;;;;5097063;28;20473;-71
2021/05/12 06:37:18;;;;;;;7.20;5.47;;;14.70;99.90;;;;;;5097354;28;20453;-71
2021/05/12 06:39:44;;;;;;;9.27;5.77;;;14.80;99.90;;;;;;5097140;28;20772;-71
2021/05/12 06:42:11;;;;;;;10.30;6.23;;;14.80;99.90;;;;;;5097144;28;20530;-70
2021/05/12 06:44:37;;;;;;;10.17;7.23;;;14.70;99.90;;;;;;5096551;28;20487;-70
2021/05/12 06:47:05;;;;;;;6.13;5.53;;;14.60;99.90;;;;;;5097519;28;20794;-70
2021/05/12 06:49:35;;;;;;;8.60;6.20;;;14.50;99.90;;;;;;5098299;28;20503;-71
2021/05/12 06:52:01;;;;;;;7.93;6.00;;;14.60;99.90;;;;;;5099414;28;20461;-70
2021/05/12 06:54:28;;;;;;;6.80;5.73;;;14.60;99.90;;;;;;5098471;28;20509;-71
2021/05/12 06:56:58;;;;;;;5.87;5.27;;;14.60;99.90;;;;;;5097786;28;20925;-70
2021/05/12 06:59:24;;;;;;;7.20;6.00;;;14.60;99.90;;;;;;5097794;28;20454;-69
2021/05/12 07:01:52;;;;;;;10.93;5.50;;;14.60;99.90;;;;;;5096980;28;20461;-69
2021/05/12 07:04:20;;;;;;;9.07;5.27;;;14.50;99.90;;;;;;5097677;28;20462;-69
2021/05/12 07:06:46;;;;;;;7.80;6.20;;;14.50;99.90;;;;;;5096346;28;20457;-70
2021/05/12 07:09:12;;;;;;;6.40;5.80;;;14.40;99.90;;;;;;5096128;28;20468;-70
2021/05/12 07:11:38;;;;;;;7.93;6.10;;;14.40;99.90;;;;;;5095550;28;20878;-70
2021/05/12 07:14:08;;;;;;;6.67;5.50;;;14.40;99.90;;;;;;5095172;28;20468;-70
2021/05/12 07:16:37;;;;;;;7.70;6.67;;;14.40;99.90;;;;;;5095836;28;20910;-70
2021/05/12 07:19:03;;;;;;;8.83;7.43;;;14.30;99.90;;;;;;5096345;28;20514;-70
2021/05/12 07:21:31;;;;;;;9.50;7.33;;;14.30;99.90;;;;;;5096425;28;20457;-70
2021/05/12 07:23:58;;;;;;;8.67;7.17;;;14.30;99.90;;;;;;5095814;28;20509;-70
2021/05/12 07:26:27;;;;;;;8.93;7.20;;;14.20;99.90;;;;;;5095703;28;20449;-70
2021/05/12 07:28:53;;;;;;;10.43;7.20;;;14.30;99.90;;;;;;5096755;28;20452;-70
2021/05/12 07:31:20;;;;;;;7.30;6.60;;;14.30;99.90;;;;;;5097553;28;20533;-69
2021/05/12 07:33:47;;;;;;;10.23;7.27;;;14.30;99.90;;;;;;5096559;28;20882;-70
2021/05/12 07:36:13;;;;;;;7.80;6.90;;;14.30;99.90;;;;;;5097031;28;20479;-70
2021/05/12 07:38:40;;;;;;;8.50;7.00;;;14.30;99.90;;;;;;5096845;28;20795;-70
2021/05/12 07:41:06;;;;;;;10.10;8.10;;;14.30;99.90;;;;;;5095417;28;20471;-70
2021/05/12 07:43:33;;;;;;;9.67;7.40;;;14.30;99.90;;;;;;5095455;28;20463;-70
2021/05/12 07:46:00;;;;;;;8.37;6.87;;;14.30;99.90;;;;;;5095243;28;20674;-75
2021/05/12 07:48:27;;;;;;;9.40;7.70;;;14.40;99.90;;;;;;5095078;28;20981;-70
2021/05/12 07:50:53;;;;;;;8.70;7.80;;;14.50;99.90;;;;;;5095513;28;20460;-70
2021/05/12 07:53:19;;;;;;;10.20;7.77;;;14.50;99.90;;;;;;5095199;28;20453;-71
2021/05/12 07:55:47;;;;;;;9.63;8.27;;;14.60;99.90;;;;;;5095280;28;20802;-69
2021/05/12 07:58:13;;;;;;;9.93;8.27;;;14.70;99.90;;;;;;5095093;28;20762;-70
2021/05/12 08:00:44;;;;;;;13.53;8.00;;;14.80;99.90;;;;;;5095047;28;20912;-70
2021/05/12 08:03:10;;;;;;;8.50;7.40;;;15.00;99.90;;;;;;5095701;28;20497;-70
2021/05/12 08:05:37;;;;;;;8.30;6.90;;;15.10;99.90;;;;;;5095320;28;20464;-70
2021/05/12 08:08:03;;;;;;;10.17;8.43;;;15.20;99.90;;;;;;5095027;28;20712;-71
2021/05/12 08:10:29;;;;;;;9.57;8.00;;;15.20;99.90;;;;;;5095190;28;20457;-70
2021/05/12 08:12:56;;;;;;;10.53;9.00;;;15.20;99.90;;;;;;5095001;28;20468;-70
2021/05/12 08:15:23;;;;;;;12.67;9.40;;;15.20;99.90;;;;;;5095316;28;20802;-70
2021/05/12 08:17:49;;;;;;;10.00;8.47;;;15.10;99.90;;;;;;5095879;28;20457;-70
2021/05/12 08:20:17;;;;;;;13.87;10.43;;;15.10;99.90;;;;;;5095632;28;20461;-70
2021/05/12 08:22:43;;;;;;;11.80;9.20;;;15.00;99.90;;;;;;5094580;28;20449;-70
2021/05/12 08:25:10;;;;;;;12.67;9.63;;;15.10;99.90;;;;;;5096767;28;20465;-70
2021/05/12 08:27:39;;;;;;;14.07;10.43;;;15.20;99.90;;;;;;5099838;28;20803;-70
2021/05/12 08:30:08;;;;;;;15.43;10.23;;;15.30;99.90;;;;;;5100750;28;20457;-70
2021/05/12 08:32:35;;;;;;;14.77;9.77;;;15.50;99.90;;;;;;5099725;28;20785;-70
2021/05/12 08:35:02;;;;;;;11.50;10.00;;;15.60;99.90;;;;;;5098833;28;20485;-70
2021/05/12 08:37:28;;;;;;;10.83;9.73;;;15.70;99.90;;;;;;5098496;28;20905;-70
2021/05/12 08:39:54;;;;;;;13.87;10.17;;;15.70;99.90;;;;;;5098722;28;20944;-70
2021/05/12 08:42:21;;;;;;;12.77;10.23;;;15.50;99.90;;;;;;5098823;28;20760;-71
2021/05/12 08:44:48;;;;;;;13.73;10.90;;;15.50;99.90;;;;;;5098071;28;20464;-70
2021/05/12 08:47:16;;;;;;;14.10;10.33;;;15.40;99.90;;;;;;5098246;28;20464;-70
2021/05/12 08:49:43;;;;;;;18.87;11.67;;;15.30;99.90;;;;;;5098324;28;20453;-70
2021/05/12 08:52:10;;;;;;;20.80;12.23;;;15.20;99.90;;;;;;5098044;28;20773;-70
2021/05/12 08:54:37;;;;;;;15.83;12.60;;;15.20;99.90;;;;;;5098029;28;20476;-70
2021/05/12 08:57:04;;;;;;;18.70;13.77;;;15.10;99.90;;;;;;5098058;28;20479;-70
2021/05/12 08:59:30;;;;;;;16.40;11.93;;;15.00;99.90;;;;;;5098362;28;20465;-70
2021/05/12 09:01:57;;;;;;;17.40;12.83;;;15.00;99.90;;;;;;5098213;28;20468;-70
2021/05/12 09:04:24;;;;;;;20.40;13.30;;;15.00;99.90;;;;;;5098250;28;20473;-70
2021/05/12 09:06:52;;;;;;;18.63;12.47;;;15.10;99.90;;;;;;5098045;28;20484;-70
2021/05/12 09:09:18;;;;;;;19.30;12.33;;;15.00;99.90;;;;;;5097759;28;20507;-69
2021/05/12 09:11:44;;;;;;;19.00;13.20;;;15.00;99.90;;;;;;5097722;28;20460;-69
2021/05/12 09:14:29;;;;;;;17.07;13.03;;;15.00;99.90;;;;;;5097633;28;20454;-69
2021/05/12 09:16:55;;;;;;;15.70;11.90;;;15.00;99.90;;;;;;5098039;28;20441;-70
2021/05/12 09:19:27;;;;;;;15.60;11.70;;;15.10;99.90;;;;;;5098082;28;20453;-70
2021/05/12 09:21:56;;;;;;;17.00;12.13;;;15.20;99.90;;;;;;5098083;28;20445;-70
2021/05/12 09:24:28;;;;;;;22.30;12.20;;;15.40;99.90;;;;;;5098171;28;20453;-70
2021/05/12 09:26:57;;;;;;;15.83;12.37;;;15.60;99.90;;;;;;5097885;28;20503;-70
2021/05/12 09:29:30;;;;;;;15.60;12.07;;;15.70;99.90;;;;;;5098285;28;20510;-70
2021/05/12 09:32:07;;;;;;;14.50;10.50;;;15.90;99.90;;;;;;5098144;28;20523;-69
2021/05/12 09:34:57;;;;;;;16.20;12.20;;;16.00;99.90;;;;;;5097442;28;20542;-70
2021/05/12 09:37:25;;;;;;;16.90;12.77;;;16.00;99.90;;;;;;5097974;28;20448;-69
2021/05/12 09:39:52;;;;;;;17.53;12.67;;;15.90;99.90;;;;;;5097598;28;20992;-70
2021/05/12 09:42:19;;;;;;;16.00;12.67;;;15.70;99.90;;;;;;5098650;28;20498;-71
2021/05/12 09:44:45;;;;;;;19.93;13.83;;;15.60;99.90;;;;;;5097910;28;20454;-69
2021/05/12 09:47:27;;;;;;;17.93;13.23;;;15.50;99.90;;;;;;5097711;28;20454;-71
2021/05/12 09:49:55;;;;;;;21.73;13.20;;;15.40;99.90;;;;;;5097293;28;20437;-70
2021/05/12 09:52:27;;;;;;;20.03;13.70;;;15.30;99.90;;;;;;5097597;28;20531;-69
2021/05/12 09:55:00;;;;;;;21.27;14.53;;;15.30;99.90;;;;;;5097135;28;20461;-70
2021/05/12 09:57:26;;;;;;;24.50;14.57;;;15.30;99.90;;;;;;5097059;28;20445;-69
2021/05/12 09:59:52;;;;;;;17.87;13.73;;;15.30;99.90;;;;;;5097107;28;20464;-69
2021/05/12 10:02:19;;;;;;;18.73;14.37;;;15.30;99.90;;;;;;5097107;28;20532;-70
2021/05/12 10:04:46;;;;;;;18.23;14.03;;;15.30;99.90;;;;;;5096499;28;20820;-70
2021/05/12 10:07:16;;;;;;;17.90;13.67;;;15.40;99.90;;;;;;5096934;28;20536;-70
2021/05/12 10:09:44;;;;;;;17.40;13.10;;;15.40;99.90;;;;;;5096673;28;20464;-70
2021/05/12 10:12:13;;;;;;;18.90;13.47;;;15.50;99.90;;;;;;5097105;28;20458;-69
2021/05/12 10:14:41;;;;;;;15.90;12.37;;;15.60;99.90;;;;;;5097044;28;20807;-69
2021/05/12 10:17:10;;;;;;;19.70;14.00;;;15.80;99.90;;;;;;5096273;28;20552;-69
2021/05/12 10:19:37;;;;;;;21.93;14.10;;;15.90;99.90;;;;;;5097259;28;20450;-70
2021/05/12 10:22:03;;;;;;;19.90;14.07;;;16.10;99.90;;;;;;5096848;28;20457;-70
2021/05/12 10:24:32;;;;;;;19.90;13.73;;;16.20;99.90;;;;;;5096668;28;20457;-70
2021/05/12 10:27:01;;;;;;;19.03;13.13;;;16.30;99.90;;;;;;5096703;28;20779;-69
2021/05/12 10:29:28;;;;;;;19.90;13.80;;;16.30;99.90;;;;;;5096590;28;20453;-69
2021/05/12 10:31:55;;;;;;;22.90;14.10;;;16.20;99.90;;;;;;5096412;28;20496;-69
2021/05/12 10:34:36;;;;;;;20.27;14.07;;;16.20;99.90;;;;;;5096299;28;20492;-70
2021/05/12 10:37:21;;;;;;;21.83;14.67;;;16.30;99.90;;;;;;5098589;28;20900;-68
2021/05/12 10:39:58;;;;;;;21.50;14.53;;;16.30;99.90;;;;;;5098591;28;20458;-68
2021/05/12 10:42:51;;;;;;;22.13;15.03;;;16.30;99.90;;;;;;5099247;28;20459;-67
2021/05/12 10:45:20;;;;;;;18.30;13.77;;;16.10;99.90;;;;;;5097889;28;20438;-68
2021/05/12 10:47:47;;;;;;;18.03;13.03;;;16.10;99.90;;;;;;5097162;28;20458;-68
2021/05/12 10:50:13;;;;;;;17.93;14.47;;;16.10;99.90;;;;;;5096761;28;20472;-67
2021/05/12 10:53:19;;;;;;;21.87;14.90;;;16.10;99.90;;;;;;5098274;28;20453;-68
2021/05/12 10:56:08;;;;;;;18.67;14.43;;;16.10;99.90;;;;;;5096307;28;20461;-69
2021/05/12 10:58:40;;;;;;;25.33;15.50;;;16.20;99.90;;;;;;5095672;28;20449;-69
2021/05/12 11:01:07;;;;;;;19.07;14.23;;;16.20;99.90;;;;;;5095054;28;20552;-69
2021/05/12 11:04:18;;;;;;;19.37;13.37;;;16.40;99.90;;;;;;5095528;28;20532;-69
2021/05/12 11:07:14;;;;;;;20.57;15.07;;;16.50;99.90;;;;;;5096135;28;20438;-69
2021/05/12 11:09:47;;;;;;;15.80;12.47;;;16.50;99.90;;;;;;5097232;28;20480;-71
2021/05/12 11:12:22;;;;;;;19.50;13.93;;;16.60;99.90;;;;;;5097354;28;20764;-69
2021/05/12 11:14:57;;;;;;;17.90;13.20;;;16.50;99.90;;;;;;5096362;28;20468;-69
2021/05/12 11:17:52;;;;;;;18.93;13.50;;;16.60;99.90;;;;;;5096475;28;20864;-69
2021/05/12 11:20:26;;;;;;;15.90;12.20;;;16.70;99.90;;;;;;5095418;28;20441;-69
2021/05/12 11:22:57;;;;;;;19.40;13.47;;;16.80;99.90;;;;;;5095654;28;20461;-70
2021/05/12 11:25:39;;;;;;;17.60;12.90;;;16.80;99.90;;;;;;5096494;28;20550;-69
2021/05/12 11:28:32;;;;;;;18.30;13.83;;;16.90;99.90;;;;;;5101390;28;20461;-68
2021/05/12 11:33:49;;;;;;;21.50;14.40;;;16.90;99.90;;;;;;5094820;28;20976;-67
2021/05/12 11:36:17;;;;;;;20.67;14.37;;;16.80;99.90;;;;;;5100201;28;20487;-69
2021/05/12 11:38:44;;;;;;;18.00;14.33;;;16.80;99.90;;;;;;5101643;28;20538;-69
2021/05/12 11:41:15;;;;;;;16.60;13.50;;;16.80;99.90;;;;;;5100605;28;20457;-68
2021/05/12 11:43:43;;;;;;;18.70;13.33;;;16.80;99.90;;;;;;5101690;28;20895;-68
2021/05/12 11:46:18;;;;;;;19.83;14.77;;;16.80;99.90;;;;;;5102037;28;20445;-68
2021/05/12 11:48:46;;;;;;;17.93;14.40;;;16.90;99.90;;;;;;5102742;28;20437;-68
2021/05/12 11:51:17;;;;;;;17.77;13.30;;;16.90;99.90;;;;;;5102960;28;20473;-68
2021/05/12 11:53:44;;;;;;;19.23;14.00;;;17.00;99.90;;;;;;5102953;28;20446;-69
2021/05/12 11:56:11;;;;;;;18.53;13.87;;;17.00;99.90;;;;;;5101824;28;20779;-69
2021/05/12 11:58:40;;;;;;;17.80;13.87;;;17.00;99.90;;;;;;5104950;28;20540;-69
2021/05/12 12:01:13;;;;;;;18.83;13.90;;;17.00;99.90;;;;;;5107536;28;20464;-69
2021/05/12 12:03:45;;;;;;;19.87;14.30;;;17.10;99.90;;;;;;5106381;28;20464;-68
2021/05/12 12:06:15;;;;;;;20.27;14.13;;;17.10;99.90;;;;;;5107711;28;20437;-68
2021/05/12 12:08:42;;;;;;;19.83;15.77;;;17.20;99.90;;;;;;5106850;28;20457;-68
2021/05/12 12:11:10;;;;;;;23.10;16.20;;;17.20;99.90;;;;;;5107529;28;20917;-70
2021/05/12 12:13:37;;;;;;;19.00;12.77;;;17.20;99.90;;;;;;5107442;28;20453;-68
2021/05/12 12:16:04;;;;;;;16.03;12.47;;;17.30;99.90;;;;;;5107683;28;20643;-69
2021/05/12 12:18:33;;;;;;;15.03;12.13;;;17.30;99.90;;;;;;5108339;28;20461;-68
2021/05/12 12:21:00;;;;;;;17.60;11.53;;;17.30;99.90;;;;;;5107944;28;20457;-69
2021/05/12 12:23:31;;;;;;;14.10;12.17;;;17.20;99.90;;;;;;5108965;28;20453;-68
2021/05/12 12:26:09;;;;;;;12.40;10.90;;;17.20;99.90;;;;;;5109236;28;20446;-67
2021/05/12 12:28:36;;;;;;;13.23;11.83;;;17.20;99.90;;;;;;5107682;28;20452;-68
2021/05/12 12:31:02;;;;;;;13.37;10.73;;;17.20;99.90;;;;;;5106581;28;20481;-69
2021/05/12 12:33:28;;;;;;;15.40;12.33;;;17.20;99.90;;;;;;5106886;28;20554;-68
2021/05/12 12:36:06;;;;;;;13.87;11.40;;;17.30;99.90;;;;;;5107107;28;20804;-68
2021/05/12 12:38:37;;;;;;;16.30;11.80;;;17.40;99.90;;;;;;5106049;28;20451;-68
2021/05/12 12:41:03;;;;;;;15.83;12.40;;;17.40;99.90;;;;;;5106651;28;20453;-68
2021/05/12 12:43:42;;;;;;;15.23;12.23;;;17.40;99.90;;;;;;5105604;28;20537;-68
2021/05/12 12:46:08;;;;;;;14.10;11.57;;;17.30;99.90;;;;;;5106974;28;20521;-69
2021/05/12 12:48:35;;;;;;;18.33;12.40;;;17.30;99.90;;;;;;5106798;28;20510;-68